Mount Moriah, Missouri
Current Conditions -  °F | °C
As of 10:53 AM on Thursday 30 Oct 2014 (Local Time) from KLWD Reporting Station
Clear Clear  
Wind Chill: 53°   Ceiling: Unl
Heat Index: 53°   Visibility: 10mi
Dew Point: 39°   Wind: 0mph
Humidity: 59%   Direction: NA
Pressure: 30.01"   Gusts: NA
Location:  40.33°N, 93.8°W
Report Text: KLWD 301553Z AUTO 00000KT 10SM CLR 12/04 A3001 RMK AO2 SLP166 T01170039
Loading
Personal Weather Stations






























Interactive Weather Map New forecast layout! Learn more

10-Day Weather Forecast

Advertisements
Track Severe Weather on mobile